Flight Track Log - Related Links

Times and Time Zones

All times are in EDT time to prevent confusion due to time zone crossing. See the ANT535 flight status page for this flight to view local times or setup timezone preferences in your user account.

Time Position Orientation Groundspeed Altitude Reporting Facility
EDT Latitude Longitude Course Direction KTS MPH feet Rate Location/Type
Wed 08:09:00 PM 60.0641 -134.2174 140° Southeast  Level FlightAware Approximate
Wed 08:10:00 PM 59.9801 -134.0636 144° Southeast  Level FlightAware Approximate
Wed 08:11:00 PM 59.8868 -133.9290 144° Southeast  Level FlightAware Approximate
Wed 08:12:00 PM 59.7976 -133.7845 140° Southeast  Level FlightAware Approximate
Wed 08:13:00 PM 59.7094 -133.6378 140° Southeast  Level FlightAware Approximate
Wed 08:14:00 PM 59.6217 -133.4908 143° Southeast  Level FlightAware Approximate
Wed 08:15:00 PM 59.5305 -133.3522 141° Southeast  Level FlightAware Approximate
Wed 08:16:00 PM 59.4409 -133.2100 141° Southeast  Level FlightAware Approximate
Wed 08:17:00 PM 59.3512 -133.0685 141° Southeast  Level FlightAware Approximate
Wed 08:18:00 PM 59.2623 -132.9268 142° Southeast  Level FlightAware Approximate
Wed 08:19:00 PM 59.1712 -132.7896 142° Southeast  Level FlightAware Approximate
Wed 08:20:00 PM 59.0799 -132.6530 142° Southeast  Level FlightAware Approximate
Wed 08:21:00 PM 58.9892 -132.5155 142° Southeast  Level FlightAware Approximate
Wed 08:22:00 PM 58.8984 -132.3784 142° Southeast  Level FlightAware Approximate
Wed 08:23:00 PM 58.8075 -132.2420 142° Southeast  Level FlightAware Approximate
Wed 08:24:00 PM 58.7164 -132.1064 142° Southeast  Level FlightAware Approximate
Wed 08:25:00 PM 58.6252 -131.9716 143° Southeast  Level FlightAware Approximate
Wed 08:26:00 PM 58.5329 -131.8396 143° Southeast  Level FlightAware Approximate
Wed 08:27:00 PM 58.4406 -131.7082 143° Southeast  Level FlightAware Approximate
Wed 08:28:00 PM 58.3481 -131.5775 143° Southeast  Level FlightAware Approximate
Wed 08:29:00 PM 58.2562 -131.4458 143° Southeast  Level FlightAware Approximate
Wed 08:30:00 PM 58.1645 -131.3139 143° Southeast  Level FlightAware Approximate
Wed 08:31:00 PM 58.0726 -131.1827 143° Southeast  Level FlightAware Approximate
Wed 08:32:00 PM 57.9806 -131.0521 143° Southeast  Level FlightAware Approximate
Wed 08:33:00 PM 57.8885 -130.9222 143° Southeast  Level FlightAware Approximate
Wed 08:34:00 PM 57.7963 -130.7929 143° Southeast  Level FlightAware Approximate
Wed 08:35:00 PM 57.7039 -130.6643 143° Southeast  Level FlightAware Approximate
Wed 08:36:00 PM 57.6113 -130.5366 144° Southeast  Level FlightAware Approximate
Wed 08:37:00 PM 57.5184 -130.4102 144° Southeast  Level FlightAware Approximate
Wed 08:38:00 PM 57.4253 -130.2843 144° Southeast  Level FlightAware Approximate
Wed 08:39:00 PM 57.3321 -130.1592 144° Southeast  Level FlightAware Approximate
Wed 08:40:00 PM 57.2387 -130.0346 144° Southeast  Level FlightAware Approximate
Wed 08:41:00 PM 57.1453 -129.9107 144° Southeast  Level FlightAware Approximate
Wed 08:41:15 PM 57.0333 -129.8333 152° Southeast 480 552 37,000  Level Vancouver Center
Wed 08:42:00 PM 57.0517 -129.7874 144° Southeast  Level FlightAware Approximate
Wed 08:43:00 PM 56.9580 -129.6648 144° Southeast  Level FlightAware Approximate
Wed 08:43:00 PM 56.8615 -129.6542 150° Southeast  Level Estimated
Wed 08:44:00 PM 56.8642 -129.5427 145° Southeast  Level FlightAware Approximate
Wed 08:44:18 PM 56.7167 -129.4167 150° Southeast 480 552 37,000  Level Vancouver Center
Wed 08:45:00 PM 56.7702 -129.4213 145° Southeast  Level FlightAware Approximate
Wed 08:45:18 PM 56.6167 -129.3000 147° Southeast 460 529 37,000  Level Vancouver Center
Wed 08:46:00 PM 56.6689 -129.3220 152° Southeast  Level FlightAware Approximate
Wed 08:46:26 PM 56.4833 -129.2000 157° South 510 587 37,000  Level Vancouver Center
Wed 08:47:26 PM 56.3667 -129.1000 155° Southeast 450 518 37,000  Level Vancouver Center
Wed 08:48:26 PM 56.2667 -128.9833 147° Southeast 450 518 37,000  Level Vancouver Center
Wed 08:49:26 PM 56.1500 -128.8833 154° Southeast 440 506 37,000  Level Vancouver Center
Wed 08:50:26 PM 56.0500 -128.7833 151° Southeast 450 518 37,000  Level Vancouver Center
Wed 08:51:47 PM 55.9000 -128.6500 153° Southeast 350 403 37,000  Level Vancouver Center
Wed 08:52:47 PM 55.8000 -128.5500 151° Southeast 470 541 37,000  Level Vancouver Center
Wed 08:53:47 PM 55.6833 -128.4333 151° Southeast 470 541 37,000  Level Vancouver Center
Wed 08:54:47 PM 55.5667 -128.3333 154° Southeast 450 518 37,000  Level Vancouver Center
Wed 08:55:47 PM 55.4500 -128.2333 154° Southeast 450 518 37,000  Level Vancouver Center
Wed 08:56:47 PM 55.3333 -128.1333 154° Southeast 450 518 37,000  Level Vancouver Center
Wed 08:57:47 PM 55.2333 -128.0333 150° Southeast 450 518 37,000  Level Vancouver Center
Wed 08:58:47 PM 55.1167 -127.9333 154° Southeast 450 518 37,000  Level Vancouver Center
Wed 08:59:47 PM 55.0167 -127.8333 150° Southeast 450 518 37,000  Level Vancouver Center
Wed 09:00:47 PM 54.9000 -127.7500 158° South 450 518 37,000  Level Vancouver Center
Wed 09:01:47 PM 54.7833 -127.6500 154° Southeast 450 518 37,000  Level Vancouver Center
Wed 09:02:47 PM 54.6667 -127.5500 154° Southeast 450 518 37,000  Level Vancouver Center
Wed 09:03:47 PM 54.5667 -127.4500 150° Southeast 450 518 37,000  Level Vancouver Center
Wed 09:04:47 PM 54.4500 -127.3333 150° Southeast 460 529 37,000  Level Vancouver Center
Wed 09:05:47 PM 54.3333 -127.2333 153° Southeast 450 518 37,000  Level Vancouver Center
Wed 09:06:47 PM 54.2167 -127.1333 153° Southeast 450 518 37,000  Level Vancouver Center
Wed 09:07:47 PM 54.1000 -127.0333 153° Southeast 450 518 37,000  Level Vancouver Center
Wed 09:08:47 PM 54.0000 -126.9500 154° Southeast 450 518 37,000  Level Vancouver Center
Wed 09:09:47 PM 53.8667 -126.8500 156° South 450 518 37,000  Level Vancouver Center
Wed 09:10:47 PM 53.7833 -126.7667 149° Southeast 460 529 37,000  Level Vancouver Center
Wed 09:11:47 PM 53.6500 -126.6667 156° South 450 518 37,000  Level Vancouver Center
Wed 09:12:47 PM 53.5500 -126.5833 154° Southeast 450 518 37,000  Level Vancouver Center
Wed 09:13:47 PM 53.4333 -126.4833 153° Southeast 450 518 37,000  Level Vancouver Center
Wed 09:14:47 PM 53.3167 -126.4000 157° South 450 518 37,000  Level Vancouver Center
Wed 09:15:47 PM 53.2000 -126.3000 153° Southeast 450 518 37,000  Level Vancouver Center
Wed 09:16:47 PM 53.0833 -126.2167 157° South 450 518 37,000  Level Vancouver Center
Wed 09:17:47 PM 52.9667 -126.1333 157° South 450 518 37,000  Level Vancouver Center
Wed 09:18:47 PM 52.8500 -126.0333 153° Southeast 460 529 37,000  Level Vancouver Center
Wed 09:19:47 PM 52.7500 -125.9500 153° Southeast 450 518 37,000  Level Vancouver Center
Wed 09:20:47 PM 52.6333 -125.8667 157° South 450 518 37,000  Level Vancouver Center
Wed 09:21:47 PM 52.5333 -125.7667 149° Southeast 460 529 37,000  Level Vancouver Center
Wed 09:22:47 PM 52.4000 -125.6833 159° South 450 518 37,000  Level Vancouver Center
Wed 09:23:47 PM 52.3000 -125.6000 153° Southeast 450 518 37,000  Level Vancouver Center
Wed 09:24:47 PM 52.1833 -125.5167 156° South 450 518 37,000  Level Vancouver Center
Wed 09:25:47 PM 52.0667 -125.4333 156° South 450 518 37,000  Level Vancouver Center
Wed 09:26:47 PM 51.9500 -125.3500 156° South 450 518 37,000  Level Vancouver Center
Wed 09:27:47 PM 51.8333 -125.2500 152° Southeast 450 518 37,000  Level Vancouver Center
Wed 09:28:47 PM 51.7167 -125.1667 156° South 460 529 37,000  Level Vancouver Center
Wed 09:34:52 PM 51.0660 -124.6220 156° South 454 522 37,000  Level FlightAware ADS-B
Wed 09:35:37 PM 50.9750 -124.5560 155° Southeast 453 521 37,000  Level FlightAware ADS-B
Wed 09:36:17 PM 50.9000 -124.5030 156° South 453 521 37,000 -212 Level FlightAware ADS-B
Wed 09:37:02 PM 50.8160 -124.4430 156° South 450 518 36,700 -1,694 Descending FlightAware ADS-B
Wed 09:37:42 PM 50.7400 -124.3810 153° Southeast 457 526 34,600 -3,671 Descending FlightAware ADS-B
Wed 09:38:27 PM 50.6520 -124.3100 153° Southeast 472 543 31,500 -3,388 Descending FlightAware ADS-B
Wed 09:39:07 PM 50.5780 -124.2500 153° Southeast 461 531 29,800 -2,471 Descending FlightAware ADS-B
Wed 09:39:52 PM 50.4920 -124.1820 153° Southeast 448 516 28,000 -2,400 Descending FlightAware ADS-B
Wed 09:40:32 PM 50.4200 -124.1240 153° Southeast 437 503 26,400 -2,400 Descending FlightAware ADS-B
Wed 09:41:12 PM 50.3480 -124.0670 153° Southeast 424 488 24,800 -2,329 Descending FlightAware ADS-B
Wed 09:41:57 PM 50.2690 -124.0050 153° Southeast 410 472 23,100 -2,188 Descending FlightAware ADS-B
Wed 09:42:37 PM 50.2030 -123.9520 153° Southeast 399 459 21,700 -2,100 Descending FlightAware ADS-B
Wed 09:43:17 PM 50.1370 -123.9010 154° Southeast 387 445 20,300 -2,047 Descending FlightAware ADS-B
Wed 09:44:02 PM 50.0690 -123.8470 153° Southeast 376 433 18,800 -2,047 Descending FlightAware ADS-B
Wed 09:44:42 PM 50.0070 -123.7980 153° Southeast 366 421 17,400 -2,118 Descending FlightAware ADS-B
Wed 09:45:27 PM 49.9380 -123.7450 154° Southeast 360 414 15,800 -2,118 Descending FlightAware ADS-B
Wed 09:46:07 PM 49.8790 -123.6990 153° Southeast 353 406 14,400 -1,950 Descending FlightAware ADS-B
Wed 09:46:47 PM 49.8220 -123.6550 154° Southeast 341 392 13,200 -1,200 Descending FlightAware ADS-B
Wed 09:47:32 PM 49.7640 -123.6090 153° Southeast 305 351 12,700 -918 Descending FlightAware ADS-B
Wed 09:48:12 PM 49.7170 -123.5620 147° Southeast 293 337 11,900 -1,271 Descending FlightAware ADS-B
Wed 09:48:57 PM 49.6650 -123.5100 147° Southeast 285 328 10,900 -1,200 Descending FlightAware ADS-B
Wed 09:49:37 PM 49.6220 -123.4670 147° Southeast 280 322 10,200 -1,114 Descending FlightAware ADS-B
Wed 09:50:07 PM 49.5900 -123.4350 147° Southeast 272 313 9,600 -1,091 Descending FlightAware ADS-B
Wed 09:50:32 PM 49.5640 -123.4090 147° Southeast 264 304 9,200 -1,050 Descending FlightAware ADS-B
Wed 09:50:47 PM 49.5500 -123.3950 147° Southeast 261 300 8,900 -1,333 Descending FlightAware ADS-B
Wed 09:51:17 PM 49.5180 -123.3630 147° Southeast 261 300 8,200 -1,418 Descending FlightAware ADS-B
Wed 09:51:42 PM 49.4930 -123.3390 148° Southeast 260 299 7,600 -1,418 Descending FlightAware ADS-B
Wed 09:52:12 PM 49.4630 -123.3090 147° Southeast 261 300 6,900 -982 Descending FlightAware ADS-B
Wed 09:52:37 PM 49.4340 -123.2950 163° South 245 282 6,700 -750 Descending FlightAware ADS-B
Wed 09:52:52 PM 49.4180 -123.2960 182° South 244 281 6,400 -1,067 Descending FlightAware ADS-B
Wed 09:53:22 PM 49.3860 -123.3000 185° South 240 276 5,900 -982 Descending FlightAware ADS-B
Wed 09:53:47 PM 49.3570 -123.3040 185° South 238 274 5,500 -900 Descending FlightAware ADS-B
Wed 09:54:02 PM 49.3430 -123.3150 207° Southwest 231 266 5,300 -800 Descending FlightAware ADS-B
Wed 09:54:17 PM 49.3330 -123.3350 233° Southwest 224 258 5,100 -750 Descending FlightAware ADS-B
Wed 09:54:42 PM 49.3190 -123.3670 236° Southwest 226 260 4,800 -982 Descending FlightAware ADS-B
Wed 09:55:12 PM 49.3000 -123.4040 232° Southwest 218 251 4,200 -1,067 Descending FlightAware ADS-B
Wed 09:55:27 PM 49.2850 -123.4100 195° South 210 242 4,000 -1,200 Descending FlightAware ADS-B
Wed 09:55:52 PM 49.2650 -123.4000 162° South 201 231 3,400 -1,500 Descending FlightAware ADS-B
Wed 09:56:07 PM 49.2590 -123.3800 115° Southeast 198 228 3,000 -1,600 Descending FlightAware ADS-B
Wed 09:56:37 PM 49.2550 -123.3390 98° East 191 220 2,200 -1,300 Descending FlightAware ADS-B
Wed 09:57:07 PM 49.2520 -123.3010 97° East 164 189 1,700 -873 Descending FlightAware ADS-B
Wed 09:57:32 PM 49.2490 -123.2750 100° East 155 178 1,400 -750 Descending FlightAware ADS-B
Wed 09:57:47 PM 49.2470 -123.2580 100° East 147 169 1,200 -800 Descending FlightAware ADS-B
Wed 09:58:17 PM 49.2440 -123.2290 99° East 133 153 800 -750 Descending FlightAware ADS-B
Wed 09:58:27 PM 49.2430 -123.2210 101° East 130 150 700 -171 Descending FlightAware ADS-B
Wed 09:58:52 PM 49.2410 -123.2000 98° East 130 150 700  Level FlightAware ADS-B

Login

Don't have an account? Register now (free) for customized features, flight alerts, and more!